createdAt,value
2018-08-06T00:01:22.487Z,22.15
2018-08-06T00:03:53.465Z,22.01
2018-08-06T00:06:24.719Z,22.30
2018-08-06T00:08:56.289Z,22.09
2018-08-06T00:11:27.353Z,21.96
2018-08-06T00:13:58.374Z,22.09
2018-08-06T00:16:29.493Z,22.14
2018-08-06T00:19:00.626Z,21.98
2018-08-06T00:21:31.521Z,22.02
2018-08-06T00:24:02.614Z,22.21
2018-08-06T00:26:33.488Z,21.93
2018-08-06T00:29:04.537Z,21.95
2018-08-06T00:31:35.481Z,22.06
2018-08-06T00:34:06.477Z,21.88
2018-08-06T00:36:37.518Z,21.92
2018-08-06T00:39:11.621Z,21.94
2018-08-06T00:41:42.464Z,21.96
2018-08-06T00:44:13.496Z,21.99
2018-08-06T00:46:44.456Z,21.68
2018-08-06T00:49:15.501Z,21.77
2018-08-06T00:51:46.541Z,21.66
2018-08-06T00:54:17.492Z,21.73
2018-08-06T00:56:48.532Z,21.62
2018-08-06T00:59:19.476Z,21.77
2018-08-06T01:01:50.456Z,21.42
2018-08-06T01:04:21.693Z,21.50
2018-08-06T01:06:52.597Z,21.62
2018-08-06T01:09:23.498Z,21.53
2018-08-06T01:11:54.508Z,21.61
2018-08-06T01:14:27.046Z,21.42
2018-08-06T01:16:58.388Z,21.39
2018-08-06T01:19:29.515Z,21.35
2018-08-06T01:22:00.569Z,21.35
2018-08-06T01:24:31.504Z,21.29
2018-08-06T01:27:02.488Z,21.46
2018-08-06T01:29:33.485Z,21.27
2018-08-06T01:32:04.505Z,21.19
2018-08-06T01:34:35.488Z,21.18
2018-08-06T01:37:06.670Z,21.20
2018-08-06T01:39:37.548Z,21.11
2018-08-06T01:42:08.537Z,21.08
2018-08-06T01:44:39.508Z,21.10
2018-08-06T01:47:16.294Z,21.14
2018-08-06T01:49:47.440Z,21.12
2018-08-06T01:52:18.582Z,21.07
2018-08-06T01:54:49.484Z,21.50
2018-08-06T01:57:21.310Z,20.96
2018-08-06T01:59:52.363Z,21.01
2018-08-06T02:02:23.398Z,21.17
2018-08-06T02:04:54.493Z,21.25
2018-08-06T02:07:25.484Z,21.13
2018-08-06T02:09:56.514Z,20.99
2018-08-06T02:12:27.518Z,21.04
2018-08-06T02:14:58.570Z,20.82
2018-08-06T02:17:29.527Z,21.06
2018-08-06T02:20:00.486Z,20.93
2018-08-06T02:22:31.694Z,20.82
2018-08-06T02:25:02.641Z,21.11
2018-08-06T02:27:33.501Z,21.05
2018-08-06T02:30:05.485Z,20.88
2018-08-06T02:32:36.567Z,20.90
2018-08-06T02:35:09.361Z,20.94
2018-08-06T02:37:40.609Z,20.76
2018-08-06T02:40:19.299Z,20.82
2018-08-06T02:45:36.491Z,20.88
2018-08-06T02:48:07.713Z,20.94
2018-08-06T02:50:38.556Z,21.14
2018-08-06T02:53:09.497Z,20.79
2018-08-06T02:55:40.556Z,20.73
2018-08-06T02:58:11.502Z,20.82
2018-08-06T03:00:42.508Z,20.73
2018-08-06T03:03:13.518Z,20.71
2018-08-06T03:05:44.489Z,20.88
2018-08-06T03:08:15.485Z,20.72
2018-08-06T03:10:46.475Z,20.43
2018-08-06T03:13:17.545Z,20.62
2018-08-06T03:15:48.738Z,20.85
2018-08-06T03:18:20.596Z,20.76
2018-08-06T03:20:51.465Z,20.71
2018-08-06T03:23:22.453Z,20.45
2018-08-06T03:25:53.476Z,20.64
2018-08-06T03:28:24.501Z,20.52
2018-08-06T03:30:55.525Z,20.36
2018-08-06T03:33:27.304Z,20.54
2018-08-06T03:35:58.411Z,20.20
2018-08-06T03:38:29.465Z,20.24
2018-08-06T03:41:00.506Z,20.16
2018-08-06T03:43:31.505Z,20.12
2018-08-06T03:46:02.489Z,20.07
2018-08-06T03:48:34.495Z,20.28
2018-08-06T03:51:05.480Z,19.99
2018-08-06T03:53:36.509Z,19.93
2018-08-06T03:56:07.499Z,19.91
2018-08-06T03:58:40.238Z,19.92
2018-08-06T04:01:11.832Z,20.04
2018-08-06T04:03:42.309Z,20.37
2018-08-06T04:06:13.371Z,20.01
2018-08-06T04:08:44.401Z,19.88
2018-08-06T04:11:15.462Z,19.89
2018-08-06T04:13:47.215Z,20.03
2018-08-06T04:16:18.565Z,20.49
2018-08-06T04:18:49.504Z,20.09
2018-08-06T04:21:20.500Z,20.13
2018-08-06T04:23:51.552Z,19.87
2018-08-06T04:26:22.505Z,19.83
2018-08-06T04:28:53.492Z,20.14
2018-08-06T04:31:24.517Z,19.97
2018-08-06T04:33:56.017Z,20.05
2018-08-06T04:36:27.302Z,20.18
2018-08-06T04:38:58.361Z,20.14
2018-08-06T04:41:29.618Z,19.94
2018-08-06T04:44:00.512Z,19.89
2018-08-06T04:46:31.460Z,20.13
2018-08-06T04:49:02.671Z,19.95
2018-08-06T04:51:33.737Z,19.89
2018-08-06T04:54:06.646Z,20.38
2018-08-06T04:56:37.542Z,20.19
2018-08-06T04:59:08.529Z,20.39
2018-08-06T05:01:39.598Z,20.32
2018-08-06T05:04:10.501Z,20.20
2018-08-06T05:06:41.484Z,20.41
2018-08-06T05:09:22.436Z,20.26
2018-08-06T05:11:53.542Z,20.48
2018-08-06T05:14:24.516Z,20.23
2018-08-06T05:16:55.546Z,20.22
2018-08-06T05:19:26.553Z,20.45
2018-08-06T05:21:57.503Z,20.41
2018-08-06T05:24:28.604Z,20.42
2018-08-06T05:26:59.515Z,20.38
2018-08-06T05:29:30.526Z,20.45
2018-08-06T05:32:01.463Z,20.54
2018-08-06T05:34:32.529Z,20.63
2018-08-06T05:37:03.500Z,20.84
2018-08-06T05:39:35.241Z,21.07
2018-08-06T05:42:06.449Z,21.29
2018-08-06T05:44:37.521Z,21.28
2018-08-06T05:47:08.659Z,21.29
2018-08-06T05:49:39.582Z,21.18
2018-08-06T05:52:10.660Z,21.33
2018-08-06T05:54:41.578Z,21.50
2018-08-06T05:57:12.564Z,21.49
2018-08-06T05:59:43.741Z,21.29
2018-08-06T06:02:14.544Z,21.50
2018-08-06T06:04:45.504Z,21.65
2018-08-06T06:07:16.477Z,21.80
2018-08-06T06:09:47.606Z,21.70
2018-08-06T06:12:18.547Z,21.62
2018-08-06T06:14:49.493Z,22.21
2018-08-06T06:17:20.545Z,21.88
2018-08-06T06:19:51.566Z,22.14
2018-08-06T06:24:53.033Z,22.04
2018-08-06T06:27:24.350Z,22.01
2018-08-06T06:29:55.385Z,22.45
2018-08-06T06:32:26.489Z,22.33
2018-08-06T06:34:57.605Z,22.28
2018-08-06T06:37:28.509Z,22.48
2018-08-06T06:39:59.491Z,22.78
2018-08-06T06:42:30.524Z,22.77
2018-08-06T06:45:01.593Z,22.67
2018-08-06T06:47:32.500Z,22.89
2018-08-06T06:50:05.378Z,22.98
2018-08-06T06:52:36.481Z,23.00
2018-08-06T06:55:11.465Z,23.20
2018-08-06T06:57:43.478Z,23.24
2018-08-06T07:00:14.519Z,23.37
2018-08-06T07:02:45.545Z,23.32
2018-08-06T07:05:16.497Z,23.46
2018-08-06T07:07:47.481Z,23.31
2018-08-06T07:10:18.502Z,23.43
2018-08-06T07:12:49.561Z,23.40
2018-08-06T07:15:20.521Z,23.71
2018-08-06T07:17:51.498Z,23.83
2018-08-06T07:20:22.571Z,23.80
2018-08-06T07:22:53.526Z,23.88
2018-08-06T07:25:24.485Z,23.97
2018-08-06T07:27:55.484Z,24.22
2018-08-06T07:30:26.545Z,24.26
2018-08-06T07:32:57.501Z,23.95
2018-08-06T07:35:30.236Z,24.20
2018-08-06T07:38:01.352Z,24.53
2018-08-06T07:40:32.398Z,24.49
2018-08-06T07:43:03.739Z,24.47
2018-08-06T07:45:34.560Z,24.79
2018-08-06T07:48:06.171Z,24.86
2018-08-06T07:50:37.361Z,25.26
2018-08-06T07:53:09.238Z,25.03
2018-08-06T07:55:40.389Z,24.78
2018-08-06T07:58:11.513Z,25.08
2018-08-06T08:00:42.493Z,25.07
2018-08-06T08:03:13.513Z,25.19
2018-08-06T08:05:44.509Z,25.30
2018-08-06T08:08:15.482Z,25.44
2018-08-06T08:10:46.517Z,25.28
2018-08-06T08:13:17.525Z,25.21
2018-08-06T08:15:48.548Z,25.74
2018-08-06T08:18:19.489Z,25.76
2018-08-06T08:20:50.496Z,25.96
2018-08-06T08:23:21.474Z,25.98
2018-08-06T08:25:52.482Z,26.01
2018-08-06T08:28:23.469Z,26.49
2018-08-06T08:30:54.514Z,26.65
2018-08-06T08:33:25.498Z,26.43
2018-08-06T08:35:56.653Z,26.91
2018-08-06T08:38:27.549Z,27.06
2018-08-06T08:40:58.498Z,27.42
2018-08-06T08:43:29.473Z,27.91
2018-08-06T08:46:00.484Z,27.75
2018-08-06T08:48:31.452Z,28.23
2018-08-06T08:51:02.493Z,29.16
2018-08-06T08:53:33.488Z,29.08
2018-08-06T08:56:04.505Z,29.59
2018-08-06T08:58:35.588Z,29.40
2018-08-06T09:01:06.553Z,30.08
2018-08-06T09:03:37.538Z,30.04
2018-08-06T09:06:08.509Z,30.65
2018-08-06T09:08:39.469Z,30.04
2018-08-06T09:11:11.436Z,30.08
2018-08-06T09:13:42.836Z,30.74
2018-08-06T09:16:13.281Z,30.71
2018-08-06T09:18:44.378Z,30.66
2018-08-06T09:21:15.510Z,30.58
2018-08-06T09:23:46.474Z,30.98
2018-08-06T09:26:17.498Z,31.07
2018-08-06T09:28:48.505Z,31.58
2018-08-06T09:31:19.501Z,31.70
2018-08-06T09:33:50.492Z,32.63
2018-08-06T09:36:21.491Z,31.58
2018-08-06T09:38:52.531Z,30.97
2018-08-06T09:41:23.472Z,31.02
2018-08-06T09:43:54.575Z,32.25
2018-08-06T09:46:25.530Z,32.26
2018-08-06T09:48:56.499Z,32.30
2018-08-06T09:51:27.526Z,33.30
2018-08-06T09:53:58.483Z,32.11
2018-08-06T09:56:29.548Z,31.51
2018-08-06T09:59:00.492Z,32.62
2018-08-06T10:01:36.789Z,33.23
2018-08-06T10:04:07.227Z,33.52
2018-08-06T10:06:38.955Z,31.91
2018-08-06T10:09:11.248Z,33.21
2018-08-06T10:11:42.459Z,32.69
2018-08-06T10:14:13.482Z,34.24
2018-08-06T10:16:44.514Z,33.51
2018-08-06T10:19:15.525Z,33.53
2018-08-06T10:21:46.478Z,33.77
2018-08-06T10:24:17.497Z,33.22
2018-08-06T10:26:48.531Z,34.23
2018-08-06T10:29:19.456Z,34.56
2018-08-06T10:31:50.489Z,32.75
2018-08-06T10:34:21.477Z,34.62
2018-08-06T10:36:52.489Z,35.24
2018-08-06T10:39:23.480Z,34.28
2018-08-06T10:41:54.460Z,34.59
2018-08-06T10:44:25.489Z,34.66
2018-08-06T10:46:56.515Z,35.14
2018-08-06T10:49:27.510Z,35.26
2018-08-06T10:51:58.569Z,34.48
2018-08-06T10:54:29.557Z,34.52
2018-08-06T10:57:00.501Z,33.25
2018-08-06T10:59:31.495Z,33.47
2018-08-06T11:02:02.490Z,34.51
2018-08-06T11:04:33.477Z,34.40
2018-08-06T11:07:04.490Z,33.67
2018-08-06T11:09:35.502Z,34.41
2018-08-06T11:12:06.518Z,35.04
2018-08-06T11:14:37.498Z,35.55
2018-08-06T11:17:08.497Z,35.75
2018-08-06T11:19:39.505Z,33.29
2018-08-06T11:22:10.506Z,34.46
2018-08-06T11:24:41.482Z,35.34
2018-08-06T11:27:12.536Z,35.52
2018-08-06T11:29:43.494Z,34.45
2018-08-06T11:32:14.490Z,34.85
2018-08-06T11:34:45.453Z,35.29
2018-08-06T11:37:16.518Z,35.18
2018-08-06T11:39:47.513Z,35.33
2018-08-06T11:42:18.550Z,35.04
2018-08-06T11:44:49.489Z,35.20
2018-08-06T11:47:20.507Z,35.86
2018-08-06T11:49:51.481Z,35.92
2018-08-06T11:52:22.533Z,35.97
2018-08-06T11:54:53.509Z,36.27
2018-08-06T11:57:24.685Z,35.54
2018-08-06T11:59:56.028Z,37.43
2018-08-06T12:02:27.624Z,37.19
2018-08-06T12:04:58.547Z,36.51
2018-08-06T12:07:29.683Z,35.88
2018-08-06T12:10:00.761Z,36.49
2018-08-06T12:12:31.583Z,36.63
2018-08-06T12:15:02.510Z,35.78
2018-08-06T12:17:33.643Z,37.04
2018-08-06T12:20:07.961Z,35.85
2018-08-06T12:22:39.412Z,37.36
2018-08-06T12:25:11.551Z,36.69
2018-08-06T12:27:42.841Z,37.39
2018-08-06T12:30:20.242Z,36.96
2018-08-06T12:32:52.252Z,38.01
2018-08-06T12:35:23.394Z,37.96
2018-08-06T12:37:54.503Z,37.96
2018-08-06T12:40:25.505Z,37.91
2018-08-06T12:42:56.493Z,37.65
2018-08-06T12:45:27.509Z,36.15
2018-08-06T12:47:58.492Z,35.79
2018-08-06T12:50:29.490Z,35.92
2018-08-06T12:53:00.509Z,37.91
2018-08-06T12:55:31.534Z,36.91
2018-08-06T12:58:02.521Z,38.06
2018-08-06T13:00:33.498Z,37.20
2018-08-06T13:03:04.566Z,38.52
2018-08-06T13:05:35.561Z,38.15
2018-08-06T13:08:06.516Z,38.93
2018-08-06T13:10:37.513Z,39.18
2018-08-06T13:13:08.535Z,37.23
2018-08-06T13:15:39.511Z,38.31
2018-08-06T13:18:10.536Z,37.90
2018-08-06T13:20:41.489Z,38.07
2018-08-06T13:23:12.518Z,39.64
2018-08-06T13:25:43.469Z,38.14
2018-08-06T13:28:14.519Z,38.03
2018-08-06T13:30:45.519Z,37.79
2018-08-06T13:33:16.527Z,38.30
2018-08-06T13:35:47.484Z,38.24
2018-08-06T13:38:18.609Z,38.22
2018-08-06T13:40:49.629Z,38.40
2018-08-06T13:43:20.608Z,38.71
2018-08-06T13:45:51.535Z,38.57
2018-08-06T13:48:22.549Z,39.26
2018-08-06T13:50:53.468Z,38.69
2018-08-06T13:53:24.591Z,38.46
2018-08-06T13:55:55.497Z,38.44
2018-08-06T13:58:26.517Z,37.93
2018-08-06T14:00:57.480Z,38.49
2018-08-06T14:03:28.522Z,38.25
2018-08-06T14:05:59.517Z,38.02
2018-08-06T14:08:30.537Z,38.00
2018-08-06T14:11:01.841Z,38.31
2018-08-06T14:13:32.279Z,38.09
2018-08-06T14:16:03.531Z,38.58
2018-08-06T14:18:34.498Z,38.14
2018-08-06T14:21:05.497Z,37.48
2018-08-06T14:23:36.587Z,38.47
2018-08-06T14:26:07.482Z,38.69
2018-08-06T14:28:38.506Z,38.73
2018-08-06T14:31:09.480Z,39.04
2018-08-06T14:33:40.468Z,39.15
2018-08-06T14:36:11.494Z,37.62
2018-08-06T14:38:42.518Z,38.34
2018-08-06T14:41:13.484Z,38.34
2018-08-06T14:43:44.516Z,37.45
2018-08-06T14:46:15.492Z,38.15
2018-08-06T14:48:46.577Z,37.30
2018-08-06T14:51:17.509Z,37.42
2018-08-06T14:53:48.499Z,38.09
2018-08-06T14:56:19.489Z,37.50
2018-08-06T14:58:50.510Z,38.21
2018-08-06T15:01:21.482Z,37.97
2018-08-06T15:03:52.461Z,37.51
2018-08-06T15:06:23.750Z,37.47
2018-08-06T15:08:54.551Z,36.85
2018-08-06T15:11:25.630Z,37.24
2018-08-06T15:13:56.510Z,37.59
2018-08-06T15:16:27.481Z,37.55
2018-08-06T15:18:58.532Z,37.51
2018-08-06T15:21:29.509Z,36.96
2018-08-06T15:24:00.810Z,37.36
2018-08-06T15:26:31.301Z,36.74
2018-08-06T15:29:02.380Z,35.61
2018-08-06T15:31:33.518Z,35.99
2018-08-06T15:34:04.502Z,35.44
2018-08-06T15:36:35.456Z,35.48
2018-08-06T15:39:12.850Z,35.28
2018-08-06T15:41:44.287Z,35.32
2018-08-06T15:44:15.381Z,35.02
2018-08-06T15:46:46.468Z,35.14
2018-08-06T15:49:17.578Z,34.93
2018-08-06T15:51:48.504Z,34.57
2018-08-06T15:54:19.488Z,34.39
2018-08-06T15:56:50.529Z,34.40
2018-08-06T15:59:21.514Z,34.39
2018-08-06T16:01:52.475Z,34.45
2018-08-06T16:04:23.513Z,34.39
2018-08-06T16:06:54.492Z,34.34
2018-08-06T16:09:25.549Z,34.34
2018-08-06T16:11:56.593Z,34.49
2018-08-06T16:14:27.553Z,34.65
2018-08-06T16:16:58.553Z,34.50
2018-08-06T16:19:29.524Z,34.66
2018-08-06T16:22:00.500Z,34.55
2018-08-06T16:24:31.525Z,34.56
2018-08-06T16:27:02.507Z,34.80
2018-08-06T16:29:34.301Z,34.70
2018-08-06T16:32:05.361Z,34.47
2018-08-06T16:34:36.374Z,34.57
2018-08-06T16:37:07.369Z,34.41
2018-08-06T16:39:38.373Z,34.60
2018-08-06T16:42:09.393Z,34.08
2018-08-06T16:44:40.472Z,34.14
2018-08-06T16:47:11.576Z,34.52
2018-08-06T16:49:42.549Z,34.49
2018-08-06T16:52:13.529Z,34.41
2018-08-06T16:54:44.538Z,34.43
2018-08-06T16:57:15.498Z,34.42
2018-08-06T16:59:46.551Z,34.64
2018-08-06T17:02:17.521Z,34.44
2018-08-06T17:04:48.522Z,34.24
2018-08-06T17:07:19.498Z,34.40
2018-08-06T17:09:50.500Z,34.29
2018-08-06T17:12:21.514Z,34.25
2018-08-06T17:14:52.612Z,34.23
2018-08-06T17:17:23.525Z,34.06
2018-08-06T17:19:54.548Z,34.01
2018-08-06T17:22:25.465Z,33.91
2018-08-06T17:24:56.518Z,33.58
2018-08-06T17:27:27.509Z,33.80
2018-08-06T17:29:59.425Z,33.76
2018-08-06T17:32:31.393Z,33.73
2018-08-06T17:35:02.674Z,33.60
2018-08-06T17:37:33.557Z,33.35
2018-08-06T17:40:05.597Z,33.26
2018-08-06T17:42:36.678Z,33.18
2018-08-06T17:45:11.493Z,33.38
2018-08-06T17:47:42.670Z,33.37
2018-08-06T17:50:22.564Z,33.25
2018-08-06T17:52:54.408Z,33.24
2018-08-06T17:55:25.578Z,33.19
2018-08-06T17:57:56.505Z,32.87
2018-08-06T18:00:27.613Z,32.72
2018-08-06T18:02:58.730Z,32.69
2018-08-06T18:05:30.614Z,32.67
2018-08-06T18:08:13.792Z,32.47
2018-08-06T18:10:44.723Z,32.46
2018-08-06T18:13:15.636Z,32.37
2018-08-06T18:15:46.565Z,32.42
2018-08-06T18:18:17.480Z,32.34
2018-08-06T18:20:48.571Z,32.34
2018-08-06T18:23:19.497Z,32.28
2018-08-06T18:25:50.519Z,32.22
2018-08-06T18:28:22.662Z,32.20
2018-08-06T18:30:53.586Z,31.93
2018-08-06T18:33:25.014Z,32.05
2018-08-06T18:35:56.494Z,32.12
2018-08-06T18:38:27.522Z,31.96
2018-08-06T18:40:58.507Z,31.97
2018-08-06T18:43:29.545Z,31.89
2018-08-06T18:46:00.497Z,31.83
2018-08-06T18:48:31.490Z,31.74
2018-08-06T18:51:02.579Z,31.56
2018-08-06T18:53:33.709Z,31.60
2018-08-06T18:56:04.608Z,31.56
2018-08-06T18:58:35.598Z,31.42
2018-08-06T19:01:06.593Z,31.35
2018-08-06T19:03:37.536Z,31.27
2018-08-06T19:06:08.526Z,31.21
2018-08-06T19:08:39.502Z,31.26
2018-08-06T19:11:10.537Z,31.10
2018-08-06T19:13:46.509Z,31.12
2018-08-06T19:16:17.549Z,30.96
2018-08-06T19:18:53.683Z,30.97
2018-08-06T19:21:24.574Z,30.87
2018-08-06T19:24:00.787Z,30.86
2018-08-06T19:26:31.575Z,30.75
2018-08-06T19:29:02.579Z,30.69
2018-08-06T19:31:33.516Z,30.61
2018-08-06T19:34:04.528Z,30.57
2018-08-06T19:36:40.689Z,30.56
2018-08-06T19:39:12.397Z,30.50
2018-08-06T19:41:43.605Z,30.45
2018-08-06T19:44:14.529Z,30.45
2018-08-06T19:46:45.498Z,30.34
2018-08-06T19:49:21.769Z,30.25
2018-08-06T19:51:52.593Z,30.14
2018-08-06T19:54:23.537Z,30.17
2018-08-06T19:56:54.516Z,30.00
2018-08-06T19:59:25.679Z,30.04
2018-08-06T20:01:56.525Z,30.00
2018-08-06T20:04:27.463Z,29.83
2018-08-06T20:06:58.536Z,29.83
2018-08-06T20:09:29.513Z,29.79
2018-08-06T20:12:00.614Z,29.68
2018-08-06T20:14:31.557Z,29.63
2018-08-06T20:17:02.519Z,29.56
2018-08-06T20:19:33.504Z,29.58
2018-08-06T20:22:04.502Z,29.56
2018-08-06T20:24:35.553Z,29.53
2018-08-06T20:27:06.554Z,29.55
2018-08-06T20:29:37.519Z,29.39
2018-08-06T20:32:08.761Z,29.38
2018-08-06T20:34:39.593Z,29.29
2018-08-06T20:37:10.618Z,29.32
2018-08-06T20:39:41.497Z,29.20
2018-08-06T20:42:12.551Z,29.21
2018-08-06T20:44:43.541Z,29.09
2018-08-06T20:47:14.497Z,29.06
2018-08-06T20:49:45.491Z,29.06
2018-08-06T20:52:16.559Z,28.96
2018-08-06T20:54:47.501Z,28.93
2018-08-06T20:57:19.550Z,28.90
2018-08-06T20:59:50.718Z,28.94
2018-08-06T21:02:21.662Z,28.79
2018-08-06T21:04:52.492Z,28.77
2018-08-06T21:07:23.513Z,28.67
2018-08-06T21:09:54.501Z,28.71
2018-08-06T21:12:26.030Z,28.70
2018-08-06T21:14:57.366Z,28.66
2018-08-06T21:17:28.450Z,28.63
2018-08-06T21:19:59.501Z,28.54
2018-08-06T21:22:30.606Z,28.57
2018-08-06T21:25:01.484Z,28.39
2018-08-06T21:27:32.489Z,28.37
2018-08-06T21:30:03.512Z,28.37
2018-08-06T21:32:34.521Z,28.37
2018-08-06T21:35:06.387Z,28.35
2018-08-06T21:37:37.512Z,28.26
2018-08-06T21:40:08.490Z,28.28
2018-08-06T21:42:39.587Z,28.21
2018-08-06T21:45:11.030Z,28.17
2018-08-06T21:47:42.413Z,28.14
2018-08-06T21:50:14.349Z,28.03
2018-08-06T21:52:45.441Z,28.11
2018-08-06T21:55:16.529Z,28.04
2018-08-06T21:57:47.570Z,27.98
2018-08-06T22:00:30.393Z,27.99
2018-08-06T22:03:02.017Z,28.03
2018-08-06T22:05:33.385Z,27.93
2018-08-06T22:08:04.603Z,27.98
2018-08-06T22:10:35.517Z,27.90
2018-08-06T22:13:08.225Z,27.85
2018-08-06T22:15:39.537Z,27.81
2018-08-06T22:18:12.449Z,27.79
2018-08-06T22:20:43.466Z,27.76
2018-08-06T22:23:14.496Z,27.72
2018-08-06T22:25:45.478Z,27.59
2018-08-06T22:28:16.496Z,27.69
2018-08-06T22:30:47.476Z,27.63
2018-08-06T22:33:18.506Z,27.63
2018-08-06T22:35:49.477Z,27.59
2018-08-06T22:38:20.476Z,27.56
2018-08-06T22:40:51.449Z,27.52
2018-08-06T22:43:22.520Z,27.47
2018-08-06T22:45:53.497Z,27.39
2018-08-06T22:48:24.468Z,27.43
2018-08-06T22:50:55.511Z,27.38
2018-08-06T22:53:26.503Z,27.40
2018-08-06T22:56:07.389Z,27.42
2018-08-06T22:58:38.791Z,27.37
2018-08-06T23:01:11.570Z,27.31
2018-08-06T23:03:42.500Z,27.23
2018-08-06T23:06:13.472Z,27.22
2018-08-06T23:08:44.624Z,27.25
2018-08-06T23:11:15.554Z,27.31
2018-08-06T23:13:46.506Z,27.30
2018-08-06T23:16:17.482Z,27.28
2018-08-06T23:18:48.508Z,27.33
2018-08-06T23:21:19.478Z,27.18
2018-08-06T23:23:50.535Z,27.26
2018-08-06T23:26:21.496Z,27.28
2018-08-06T23:28:52.501Z,27.10
2018-08-06T23:31:23.509Z,27.01
2018-08-06T23:33:54.517Z,26.93
2018-08-06T23:36:25.456Z,26.92
2018-08-06T23:38:56.477Z,26.71
2018-08-06T23:41:27.462Z,26.70
2018-08-06T23:43:58.538Z,26.62
2018-08-06T23:46:29.443Z,26.48
2018-08-06T23:49:01.468Z,26.61
2018-08-06T23:51:32.500Z,26.61
2018-08-06T23:54:03.505Z,26.58
2018-08-06T23:56:34.476Z,26.69
2018-08-06T23:59:07.245Z,26.70
